sensor_id;sensor_type;location;lat;lon;timestamp;P1;durP1;ratioP1;P2;durP2;ratioP2
56997;SDS011;42890;44.244;22.530;2024-01-25T00:00:01;253.77;;;86.78;;
56997;SDS011;42890;44.244;22.530;2024-01-25T00:02:27;178.57;;;81.65;;
56997;SDS011;42890;44.244;22.530;2024-01-25T00:04:54;22.67;;;17.08;;
56997;SDS011;42890;44.244;22.530;2024-01-25T00:07:20;119.65;;;62.97;;
56997;SDS011;42890;44.244;22.530;2024-01-25T00:09:46;8.27;;;6.00;;
56997;SDS011;42890;44.244;22.530;2024-01-25T00:12:12;12.60;;;7.28;;
56997;SDS011;42890;44.244;22.530;2024-01-25T00:14:38;58.25;;;33.65;;
56997;SDS011;42890;44.244;22.530;2024-01-25T00:17:06;87.32;;;42.17;;
56997;SDS011;42890;44.244;22.530;2024-01-25T00:19:33;39.40;;;25.55;;
56997;SDS011;42890;44.244;22.530;2024-01-25T00:21:59;28.00;;;19.10;;
56997;SDS011;42890;44.244;22.530;2024-01-25T00:24:25;194.90;;;83.63;;
56997;SDS011;42890;44.244;22.530;2024-01-25T00:26:52;117.00;;;55.97;;
56997;SDS011;42890;44.244;22.530;2024-01-25T00:29:18;60.45;;;36.17;;
56997;SDS011;42890;44.244;22.530;2024-01-25T00:31:44;185.93;;;86.43;;
56997;SDS011;42890;44.244;22.530;2024-01-25T00:34:10;237.32;;;102.95;;
56997;SDS011;42890;44.244;22.530;2024-01-25T00:36:36;238.07;;;97.22;;
56997;SDS011;42890;44.244;22.530;2024-01-25T00:39:03;192.85;;;86.47;;
56997;SDS011;42890;44.244;22.530;2024-01-25T00:41:29;153.05;;;63.10;;
56997;SDS011;42890;44.244;22.530;2024-01-25T00:43:58;245.20;;;117.50;;
56997;SDS011;42890;44.244;22.530;2024-01-25T00:46:24;189.95;;;93.13;;
56997;SDS011;42890;44.244;22.530;2024-01-25T00:48:50;110.68;;;58.72;;
56997;SDS011;42890;44.244;22.530;2024-01-25T00:51:19;405.30;;;210.75;;
56997;SDS011;42890;44.244;22.530;2024-01-25T00:53:47;187.68;;;87.60;;
56997;SDS011;42890;44.244;22.530;2024-01-25T00:56:13;414.15;;;201.98;;
56997;SDS011;42890;44.244;22.530;2024-01-25T00:58:39;373.48;;;170.70;;
56997;SDS011;42890;44.244;22.530;2024-01-25T01:01:06;91.38;;;61.40;;
56997;SDS011;42890;44.244;22.530;2024-01-25T01:03:32;182.40;;;83.63;;
56997;SDS011;42890;44.244;22.530;2024-01-25T01:05:58;71.43;;;50.30;;
56997;SDS011;42890;44.244;22.530;2024-01-25T01:08:25;59.75;;;47.03;;
56997;SDS011;42890;44.244;22.530;2024-01-25T01:10:51;83.35;;;52.03;;
56997;SDS011;42890;44.244;22.530;2024-01-25T01:13:17;109.65;;;60.75;;
56997;SDS011;42890;44.244;22.530;2024-01-25T01:15:43;160.02;;;79.75;;
56997;SDS011;42890;44.244;22.530;2024-01-25T01:18:09;212.90;;;100.38;;
56997;SDS011;42890;44.244;22.530;2024-01-25T01:20:35;282.60;;;134.40;;
56997;SDS011;42890;44.244;22.530;2024-01-25T01:23:01;461.05;;;229.77;;
56997;SDS011;42890;44.244;22.530;2024-01-25T01:25:27;113.25;;;64.35;;
56997;SDS011;42890;44.244;22.530;2024-01-25T01:27:54;101.40;;;66.65;;
56997;SDS011;42890;44.244;22.530;2024-01-25T01:30:21;262.33;;;108.78;;
56997;SDS011;42890;44.244;22.530;2024-01-25T01:32:47;246.70;;;110.07;;
56997;SDS011;42890;44.244;22.530;2024-01-25T01:35:13;61.58;;;39.92;;
56997;SDS011;42890;44.244;22.530;2024-01-25T01:37:39;35.58;;;23.00;;
56997;SDS011;42890;44.244;22.530;2024-01-25T01:40:05;191.77;;;93.82;;
56997;SDS011;42890;44.244;22.530;2024-01-25T01:42:33;162.35;;;73.82;;
56997;SDS011;42890;44.244;22.530;2024-01-25T01:44:59;175.50;;;57.95;;
56997;SDS011;42890;44.244;22.530;2024-01-25T01:47:25;96.50;;;48.45;;
56997;SDS011;42890;44.244;22.530;2024-01-25T01:49:51;71.15;;;46.55;;
56997;SDS011;42890;44.244;22.530;2024-01-25T01:52:17;45.95;;;28.73;;
56997;SDS011;42890;44.244;22.530;2024-01-25T01:54:44;25.45;;;17.23;;
56997;SDS011;42890;44.244;22.530;2024-01-25T01:57:11;89.70;;;51.35;;
56997;SDS011;42890;44.244;22.530;2024-01-25T01:59:37;118.68;;;62.00;;
56997;SDS011;42890;44.244;22.530;2024-01-25T02:02:04;173.60;;;65.40;;
56997;SDS011;42890;44.244;22.530;2024-01-25T02:04:31;140.27;;;57.47;;
56997;SDS011;42890;44.244;22.530;2024-01-25T02:06:57;8.80;;;5.68;;
56997;SDS011;42890;44.244;22.530;2024-01-25T02:09:23;137.52;;;57.90;;
56997;SDS011;42890;44.244;22.530;2024-01-25T02:11:58;136.90;;;70.63;;
56997;SDS011;42890;44.244;22.530;2024-01-25T02:14:25;23.85;;;13.25;;
56997;SDS011;42890;44.244;22.530;2024-01-25T02:16:51;43.63;;;27.83;;
56997;SDS011;42890;44.244;22.530;2024-01-25T02:19:17;91.22;;;48.38;;
56997;SDS011;42890;44.244;22.530;2024-01-25T02:21:43;15.18;;;9.55;;
56997;SDS011;42890;44.244;22.530;2024-01-25T02:24:09;15.77;;;12.07;;
56997;SDS011;42890;44.244;22.530;2024-01-25T02:26:35;17.55;;;14.77;;
56997;SDS011;42890;44.244;22.530;2024-01-25T02:29:02;21.20;;;13.05;;
56997;SDS011;42890;44.244;22.530;2024-01-25T02:31:30;20.30;;;15.38;;
56997;SDS011;42890;44.244;22.530;2024-01-25T02:33:56;13.40;;;9.30;;
56997;SDS011;42890;44.244;22.530;2024-01-25T02:36:22;21.80;;;16.15;;
56997;SDS011;42890;44.244;22.530;2024-01-25T02:38:48;17.42;;;12.95;;
56997;SDS011;42890;44.244;22.530;2024-01-25T02:41:14;17.85;;;14.95;;
56997;SDS011;42890;44.244;22.530;2024-01-25T02:43:41;18.13;;;14.70;;
56997;SDS011;42890;44.244;22.530;2024-01-25T02:46:07;20.25;;;15.02;;
56997;SDS011;42890;44.244;22.530;2024-01-25T02:48:34;21.98;;;16.63;;
56997;SDS011;42890;44.244;22.530;2024-01-25T02:51:00;19.42;;;14.98;;
56997;SDS011;42890;44.244;22.530;2024-01-25T02:53:26;13.38;;;10.05;;
56997;SDS011;42890;44.244;22.530;2024-01-25T02:55:52;19.15;;;14.65;;
56997;SDS011;42890;44.244;22.530;2024-01-25T02:58:18;21.08;;;17.27;;
56997;SDS011;42890;44.244;22.530;2024-01-25T03:00:45;15.57;;;12.35;;
56997;SDS011;42890;44.244;22.530;2024-01-25T03:03:11;16.02;;;12.25;;
56997;SDS011;42890;44.244;22.530;2024-01-25T03:05:37;16.48;;;11.32;;
56997;SDS011;42890;44.244;22.530;2024-01-25T03:08:04;13.73;;;10.18;;
56997;SDS011;42890;44.244;22.530;2024-01-25T03:10:30;22.20;;;16.52;;
56997;SDS011;42890;44.244;22.530;2024-01-25T03:12:56;13.68;;;10.23;;
56997;SDS011;42890;44.244;22.530;2024-01-25T03:15:22;17.80;;;13.60;;
56997;SDS011;42890;44.244;22.530;2024-01-25T03:17:48;18.60;;;13.05;;
56997;SDS011;42890;44.244;22.530;2024-01-25T03:20:14;16.02;;;12.30;;
56997;SDS011;42890;44.244;22.530;2024-01-25T03:22:40;20.65;;;13.60;;
56997;SDS011;42890;44.244;22.530;2024-01-25T03:25:07;39.33;;;28.45;;
56997;SDS011;42890;44.244;22.530;2024-01-25T03:27:34;23.52;;;17.23;;
56997;SDS011;42890;44.244;22.530;2024-01-25T03:30:00;26.73;;;19.52;;
56997;SDS011;42890;44.244;22.530;2024-01-25T03:32:26;34.08;;;22.33;;
56997;SDS011;42890;44.244;22.530;2024-01-25T03:34:52;16.70;;;11.25;;
56997;SDS011;42890;44.244;22.530;2024-01-25T03:37:18;29.85;;;18.40;;
56997;SDS011;42890;44.244;22.530;2024-01-25T03:39:44;14.63;;;10.90;;
56997;SDS011;42890;44.244;22.530;2024-01-25T03:42:10;56.85;;;36.53;;
56997;SDS011;42890;44.244;22.530;2024-01-25T03:44:36;20.40;;;13.05;;
56997;SDS011;42890;44.244;22.530;2024-01-25T03:47:03;16.50;;;13.70;;
56997;SDS011;42890;44.244;22.530;2024-01-25T03:49:29;14.45;;;11.30;;
56997;SDS011;42890;44.244;22.530;2024-01-25T03:51:55;16.65;;;12.52;;
56997;SDS011;42890;44.244;22.530;2024-01-25T03:54:21;19.25;;;12.18;;
56997;SDS011;42890;44.244;22.530;2024-01-25T03:56:47;44.30;;;26.50;;
56997;SDS011;42890;44.244;22.530;2024-01-25T03:59:13;24.52;;;15.38;;
56997;SDS011;42890;44.244;22.530;2024-01-25T04:01:43;14.65;;;9.75;;
56997;SDS011;42890;44.244;22.530;2024-01-25T04:04:09;13.10;;;8.80;;
56997;SDS011;42890;44.244;22.530;2024-01-25T04:06:38;14.82;;;10.70;;
56997;SDS011;42890;44.244;22.530;2024-01-25T04:09:04;29.52;;;20.05;;
56997;SDS011;42890;44.244;22.530;2024-01-25T04:11:30;13.40;;;10.13;;
56997;SDS011;42890;44.244;22.530;2024-01-25T04:13:56;16.02;;;10.48;;
56997;SDS011;42890;44.244;22.530;2024-01-25T04:16:23;40.20;;;25.58;;
56997;SDS011;42890;44.244;22.530;2024-01-25T04:18:49;16.35;;;12.73;;
56997;SDS011;42890;44.244;22.530;2024-01-25T04:21:15;27.98;;;17.75;;
56997;SDS011;42890;44.244;22.530;2024-01-25T04:23:41;30.40;;;19.50;;
56997;SDS011;42890;44.244;22.530;2024-01-25T04:26:07;24.98;;;18.38;;
56997;SDS011;42890;44.244;22.530;2024-01-25T04:28:34;34.22;;;24.33;;
56997;SDS011;42890;44.244;22.530;2024-01-25T04:31:01;33.13;;;25.20;;
56997;SDS011;42890;44.244;22.530;2024-01-25T04:33:28;28.90;;;20.70;;
56997;SDS011;42890;44.244;22.530;2024-01-25T04:35:54;26.08;;;19.00;;
56997;SDS011;42890;44.244;22.530;2024-01-25T04:38:21;44.65;;;31.10;;
56997;SDS011;42890;44.244;22.530;2024-01-25T04:40:47;31.10;;;22.30;;
56997;SDS011;42890;44.244;22.530;2024-01-25T04:43:13;22.80;;;17.73;;
56997;SDS011;42890;44.244;22.530;2024-01-25T04:45:39;26.45;;;19.50;;
56997;SDS011;42890;44.244;22.530;2024-01-25T04:48:06;25.80;;;16.60;;
56997;SDS011;42890;44.244;22.530;2024-01-25T04:50:32;118.10;;;46.45;;
56997;SDS011;42890;44.244;22.530;2024-01-25T04:52:58;79.60;;;42.10;;
56997;SDS011;42890;44.244;22.530;2024-01-25T04:55:24;272.73;;;115.22;;
56997;SDS011;42890;44.244;22.530;2024-01-25T04:57:50;214.27;;;89.20;;
56997;SDS011;42890;44.244;22.530;2024-01-25T05:00:18;120.40;;;62.90;;
56997;SDS011;42890;44.244;22.530;2024-01-25T05:02:44;48.95;;;26.88;;
56997;SDS011;42890;44.244;22.530;2024-01-25T05:05:11;55.25;;;32.00;;
56997;SDS011;42890;44.244;22.530;2024-01-25T05:07:37;42.80;;;28.42;;
56997;SDS011;42890;44.244;22.530;2024-01-25T05:10:03;22.20;;;14.68;;
56997;SDS011;42890;44.244;22.530;2024-01-25T05:12:29;43.25;;;27.23;;
56997;SDS011;42890;44.244;22.530;2024-01-25T05:14:55;50.15;;;28.65;;
56997;SDS011;42890;44.244;22.530;2024-01-25T05:17:21;17.90;;;10.30;;
56997;SDS011;42890;44.244;22.530;2024-01-25T05:19:47;13.73;;;9.20;;
56997;SDS011;42890;44.244;22.530;2024-01-25T05:22:14;18.65;;;13.07;;
56997;SDS011;42890;44.244;22.530;2024-01-25T05:24:40;32.25;;;21.63;;
56997;SDS011;42890;44.244;22.530;2024-01-25T05:27:06;552.30;;;223.57;;
56997;SDS011;42890;44.244;22.530;2024-01-25T05:29:32;631.95;;;284.92;;
56997;SDS011;42890;44.244;22.530;2024-01-25T05:31:58;342.95;;;154.32;;
56997;SDS011;42890;44.244;22.530;2024-01-25T05:34:24;90.00;;;41.30;;
56997;SDS011;42890;44.244;22.530;2024-01-25T05:36:50;59.17;;;30.60;;
56997;SDS011;42890;44.244;22.530;2024-01-25T05:39:17;44.30;;;23.75;;
56997;SDS011;42890;44.244;22.530;2024-01-25T05:41:43;66.03;;;32.63;;
56997;SDS011;42890;44.244;22.530;2024-01-25T05:44:11;33.28;;;17.38;;
56997;SDS011;42890;44.244;22.530;2024-01-25T05:46:37;25.38;;;18.17;;
56997;SDS011;42890;44.244;22.530;2024-01-25T05:49:03;23.35;;;15.52;;
56997;SDS011;42890;44.244;22.530;2024-01-25T05:51:29;24.55;;;16.70;;
56997;SDS011;42890;44.244;22.530;2024-01-25T05:53:55;22.88;;;12.15;;
56997;SDS011;42890;44.244;22.530;2024-01-25T05:56:21;35.88;;;22.25;;
56997;SDS011;42890;44.244;22.530;2024-01-25T05:58:48;16.40;;;9.43;;
56997;SDS011;42890;44.244;22.530;2024-01-25T06:01:14;46.38;;;27.90;;
56997;SDS011;42890;44.244;22.530;2024-01-25T06:03:40;25.80;;;14.52;;
56997;SDS011;42890;44.244;22.530;2024-01-25T06:06:06;17.90;;;11.25;;
56997;SDS011;42890;44.244;22.530;2024-01-25T06:08:35;23.50;;;13.73;;
56997;SDS011;42890;44.244;22.530;2024-01-25T06:11:01;42.25;;;31.25;;
56997;SDS011;42890;44.244;22.530;2024-01-25T06:13:27;30.98;;;23.65;;
56997;SDS011;42890;44.244;22.530;2024-01-25T06:15:54;64.45;;;45.17;;
56997;SDS011;42890;44.244;22.530;2024-01-25T06:18:20;43.15;;;35.55;;
56997;SDS011;42890;44.244;22.530;2024-01-25T06:20:46;45.30;;;29.55;;
56997;SDS011;42890;44.244;22.530;2024-01-25T06:23:12;364.40;;;181.57;;
56997;SDS011;42890;44.244;22.530;2024-01-25T06:25:38;118.07;;;57.28;;
56997;SDS011;42890;44.244;22.530;2024-01-25T06:28:04;366.60;;;183.57;;
56997;SDS011;42890;44.244;22.530;2024-01-25T06:30:30;222.95;;;100.57;;
56997;SDS011;42890;44.244;22.530;2024-01-25T06:32:56;67.25;;;39.53;;
56997;SDS011;42890;44.244;22.530;2024-01-25T06:35:23;66.97;;;44.33;;
56997;SDS011;42890;44.244;22.530;2024-01-25T06:37:49;105.13;;;62.40;;
56997;SDS011;42890;44.244;22.530;2024-01-25T06:40:15;21.45;;;12.68;;
56997;SDS011;42890;44.244;22.530;2024-01-25T06:42:42;22.45;;;12.23;;
56997;SDS011;42890;44.244;22.530;2024-01-25T06:45:09;55.00;;;36.22;;
56997;SDS011;42890;44.244;22.530;2024-01-25T06:47:36;15.68;;;9.77;;
56997;SDS011;42890;44.244;22.530;2024-01-25T06:50:02;174.25;;;82.18;;
56997;SDS011;42890;44.244;22.530;2024-01-25T06:52:28;184.75;;;90.45;;
56997;SDS011;42890;44.244;22.530;2024-01-25T06:54:54;260.52;;;112.53;;
56997;SDS011;42890;44.244;22.530;2024-01-25T06:57:20;415.45;;;202.40;;
56997;SDS011;42890;44.244;22.530;2024-01-25T06:59:46;448.20;;;230.23;;
56997;SDS011;42890;44.244;22.530;2024-01-25T07:02:13;239.57;;;117.40;;
56997;SDS011;42890;44.244;22.530;2024-01-25T07:04:39;161.77;;;80.72;;
56997;SDS011;42890;44.244;22.530;2024-01-25T07:07:06;573.95;;;332.17;;
56997;SDS011;42890;44.244;22.530;2024-01-25T07:09:32;384.05;;;172.07;;
56997;SDS011;42890;44.244;22.530;2024-01-25T07:11:58;216.55;;;100.85;;
56997;SDS011;42890;44.244;22.530;2024-01-25T07:14:24;88.45;;;50.45;;
56997;SDS011;42890;44.244;22.530;2024-01-25T07:16:50;99.78;;;51.28;;
56997;SDS011;42890;44.244;22.530;2024-01-25T07:19:17;106.72;;;47.25;;
56997;SDS011;42890;44.244;22.530;2024-01-25T07:21:43;212.07;;;89.85;;
56997;SDS011;42890;44.244;22.530;2024-01-25T07:24:11;133.38;;;57.72;;
56997;SDS011;42890;44.244;22.530;2024-01-25T07:26:37;105.93;;;50.63;;
56997;SDS011;42890;44.244;22.530;2024-01-25T07:29:03;104.72;;;48.72;;
56997;SDS011;42890;44.244;22.530;2024-01-25T07:31:29;120.25;;;59.03;;
56997;SDS011;42890;44.244;22.530;2024-01-25T07:33:55;83.93;;;49.80;;
56997;SDS011;42890;44.244;22.530;2024-01-25T07:36:21;78.55;;;44.35;;
56997;SDS011;42890;44.244;22.530;2024-01-25T07:38:48;60.35;;;34.05;;
56997;SDS011;42890;44.244;22.530;2024-01-25T07:41:14;32.75;;;23.33;;
56997;SDS011;42890;44.244;22.530;2024-01-25T07:43:41;47.40;;;28.13;;
56997;SDS011;42890;44.244;22.530;2024-01-25T07:46:08;39.42;;;23.58;;
56997;SDS011;42890;44.244;22.530;2024-01-25T07:48:34;54.60;;;34.63;;
56997;SDS011;42890;44.244;22.530;2024-01-25T07:51:00;43.33;;;28.27;;
56997;SDS011;42890;44.244;22.530;2024-01-25T07:53:26;95.53;;;50.65;;
56997;SDS011;42890;44.244;22.530;2024-01-25T07:55:53;17.30;;;9.35;;
56997;SDS011;42890;44.244;22.530;2024-01-25T07:58:19;27.65;;;17.63;;
56997;SDS011;42890;44.244;22.530;2024-01-25T08:00:45;29.25;;;17.65;;
56997;SDS011;42890;44.244;22.530;2024-01-25T08:03:12;20.50;;;11.25;;
56997;SDS011;42890;44.244;22.530;2024-01-25T08:05:38;16.02;;;9.57;;
56997;SDS011;42890;44.244;22.530;2024-01-25T08:08:06;16.23;;;8.75;;
56997;SDS011;42890;44.244;22.530;2024-01-25T08:10:33;14.07;;;9.32;;
56997;SDS011;42890;44.244;22.530;2024-01-25T08:12:59;28.67;;;16.42;;
56997;SDS011;42890;44.244;22.530;2024-01-25T08:15:25;16.60;;;9.23;;
56997;SDS011;42890;44.244;22.530;2024-01-25T08:17:51;19.77;;;10.65;;
56997;SDS011;42890;44.244;22.530;2024-01-25T08:20:17;32.85;;;21.63;;
56997;SDS011;42890;44.244;22.530;2024-01-25T08:22:43;68.65;;;38.38;;
56997;SDS011;42890;44.244;22.530;2024-01-25T08:25:09;28.75;;;11.63;;
56997;SDS011;42890;44.244;22.530;2024-01-25T08:27:38;16.48;;;8.50;;
56997;SDS011;42890;44.244;22.530;2024-01-25T08:30:05;19.80;;;10.20;;
56997;SDS011;42890;44.244;22.530;2024-01-25T08:32:32;19.20;;;9.75;;
56997;SDS011;42890;44.244;22.530;2024-01-25T08:34:58;23.33;;;6.95;;
56997;SDS011;42890;44.244;22.530;2024-01-25T08:37:24;15.90;;;7.35;;
56997;SDS011;42890;44.244;22.530;2024-01-25T08:39:50;21.50;;;8.00;;
56997;SDS011;42890;44.244;22.530;2024-01-25T08:42:17;20.33;;;9.48;;
56997;SDS011;42890;44.244;22.530;2024-01-25T08:44:46;15.68;;;6.95;;
56997;SDS011;42890;44.244;22.530;2024-01-25T08:47:17;18.67;;;7.68;;
56997;SDS011;42890;44.244;22.530;2024-01-25T08:49:43;16.65;;;7.90;;
56997;SDS011;42890;44.244;22.530;2024-01-25T08:52:09;14.20;;;7.40;;
56997;SDS011;42890;44.244;22.530;2024-01-25T08:54:35;21.00;;;9.10;;
56997;SDS011;42890;44.244;22.530;2024-01-25T08:57:03;15.95;;;8.27;;
56997;SDS011;42890;44.244;22.530;2024-01-25T08:59:29;19.20;;;9.40;;
56997;SDS011;42890;44.244;22.530;2024-01-25T09:01:58;15.50;;;7.10;;
56997;SDS011;42890;44.244;22.530;2024-01-25T09:04:24;17.48;;;9.55;;
56997;SDS011;42890;44.244;22.530;2024-01-25T09:06:50;21.48;;;10.88;;
56997;SDS011;42890;44.244;22.530;2024-01-25T09:09:17;25.40;;;14.85;;
56997;SDS011;42890;44.244;22.530;2024-01-25T09:11:43;29.83;;;24.30;;
56997;SDS011;42890;44.244;22.530;2024-01-25T09:14:09;21.58;;;10.68;;
56997;SDS011;42890;44.244;22.530;2024-01-25T09:16:35;21.15;;;15.75;;
56997;SDS011;42890;44.244;22.530;2024-01-25T09:19:03;16.40;;;8.15;;
56997;SDS011;42890;44.244;22.530;2024-01-25T09:21:30;14.60;;;7.75;;
56997;SDS011;42890;44.244;22.530;2024-01-25T09:23:56;16.55;;;6.75;;
56997;SDS011;42890;44.244;22.530;2024-01-25T09:26:22;19.35;;;7.97;;
56997;SDS011;42890;44.244;22.530;2024-01-25T09:28:48;17.25;;;7.63;;
56997;SDS011;42890;44.244;22.530;2024-01-25T09:31:14;18.60;;;9.77;;
56997;SDS011;42890;44.244;22.530;2024-01-25T09:33:41;18.08;;;8.93;;
56997;SDS011;42890;44.244;22.530;2024-01-25T09:36:07;18.50;;;8.80;;
56997;SDS011;42890;44.244;22.530;2024-01-25T09:38:33;18.92;;;11.05;;
56997;SDS011;42890;44.244;22.530;2024-01-25T09:40:59;16.17;;;7.53;;
56997;SDS011;42890;44.244;22.530;2024-01-25T09:43:27;17.00;;;6.97;;
56997;SDS011;42890;44.244;22.530;2024-01-25T09:45:53;13.98;;;7.05;;
56997;SDS011;42890;44.244;22.530;2024-01-25T09:48:22;20.90;;;9.30;;
56997;SDS011;42890;44.244;22.530;2024-01-25T09:50:49;16.02;;;9.60;;
56997;SDS011;42890;44.244;22.530;2024-01-25T09:53:17;14.00;;;6.25;;
56997;SDS011;42890;44.244;22.530;2024-01-25T09:55:43;13.93;;;5.95;;
56997;SDS011;42890;44.244;22.530;2024-01-25T09:58:11;16.92;;;6.93;;
56997;SDS011;42890;44.244;22.530;2024-01-25T10:00:38;17.13;;;6.78;;
56997;SDS011;42890;44.244;22.530;2024-01-25T10:03:05;17.95;;;6.55;;
56997;SDS011;42890;44.244;22.530;2024-01-25T10:05:31;15.40;;;7.13;;
56997;SDS011;42890;44.244;22.530;2024-01-25T10:07:57;14.30;;;7.13;;
56997;SDS011;42890;44.244;22.530;2024-01-25T10:10:26;12.82;;;8.60;;
56997;SDS011;42890;44.244;22.530;2024-01-25T10:12:54;13.15;;;6.35;;
56997;SDS011;42890;44.244;22.530;2024-01-25T10:15:21;16.17;;;5.97;;
56997;SDS011;42890;44.244;22.530;2024-01-25T10:17:49;13.15;;;6.10;;
56997;SDS011;42890;44.244;22.530;2024-01-25T10:20:16;11.35;;;5.18;;
56997;SDS011;42890;44.244;22.530;2024-01-25T10:22:43;12.82;;;5.45;;
56997;SDS011;42890;44.244;22.530;2024-01-25T10:25:12;16.73;;;6.95;;
56997;SDS011;42890;44.244;22.530;2024-01-25T10:27:39;10.77;;;5.32;;
56997;SDS011;42890;44.244;22.530;2024-01-25T10:30:09;16.13;;;6.55;;
56997;SDS011;42890;44.244;22.530;2024-01-25T10:32:35;18.70;;;6.88;;
56997;SDS011;42890;44.244;22.530;2024-01-25T10:35:02;14.70;;;5.88;;
56997;SDS011;42890;44.244;22.530;2024-01-25T10:37:28;11.80;;;5.45;;
56997;SDS011;42890;44.244;22.530;2024-01-25T10:39:54;13.30;;;5.53;;
56997;SDS011;42890;44.244;22.530;2024-01-25T10:42:21;19.40;;;6.43;;
56997;SDS011;42890;44.244;22.530;2024-01-25T10:44:47;14.13;;;5.82;;
56997;SDS011;42890;44.244;22.530;2024-01-25T10:47:13;12.40;;;5.60;;
56997;SDS011;42890;44.244;22.530;2024-01-25T10:49:39;12.75;;;5.78;;
56997;SDS011;42890;44.244;22.530;2024-01-25T10:52:08;13.52;;;6.28;;
56997;SDS011;42890;44.244;22.530;2024-01-25T10:54:35;13.55;;;6.43;;
56997;SDS011;42890;44.244;22.530;2024-01-25T10:57:01;15.88;;;6.25;;
56997;SDS011;42890;44.244;22.530;2024-01-25T10:59:28;13.25;;;5.28;;
56997;SDS011;42890;44.244;22.530;2024-01-25T11:01:54;11.60;;;5.45;;
56997;SDS011;42890;44.244;22.530;2024-01-25T11:04:20;13.60;;;6.25;;
56997;SDS011;42890;44.244;22.530;2024-01-25T11:06:47;12.75;;;5.45;;
56997;SDS011;42890;44.244;22.530;2024-01-25T11:09:17;14.73;;;6.10;;
56997;SDS011;42890;44.244;22.530;2024-01-25T11:11:44;15.68;;;8.82;;
56997;SDS011;42890;44.244;22.530;2024-01-25T11:14:13;17.13;;;6.43;;
56997;SDS011;42890;44.244;22.530;2024-01-25T11:16:41;17.65;;;5.70;;
56997;SDS011;42890;44.244;22.530;2024-01-25T11:19:15;11.63;;;5.60;;
56997;SDS011;42890;44.244;22.530;2024-01-25T11:21:45;17.55;;;6.72;;
56997;SDS011;42890;44.244;22.530;2024-01-25T11:24:12;16.13;;;5.30;;
56997;SDS011;42890;44.244;22.530;2024-01-25T11:26:38;13.73;;;7.10;;
56997;SDS011;42890;44.244;22.530;2024-01-25T11:29:05;15.82;;;5.60;;
56997;SDS011;42890;44.244;22.530;2024-01-25T11:31:31;15.13;;;7.20;;
56997;SDS011;42890;44.244;22.530;2024-01-25T11:34:00;10.40;;;5.85;;
56997;SDS011;42890;44.244;22.530;2024-01-25T11:36:27;13.05;;;6.88;;
56997;SDS011;42890;44.244;22.530;2024-01-25T11:38:53;18.40;;;6.55;;
56997;SDS011;42890;44.244;22.530;2024-01-25T11:41:19;14.95;;;7.55;;
56997;SDS011;42890;44.244;22.530;2024-01-25T11:43:49;13.55;;;6.93;;
56997;SDS011;42890;44.244;22.530;2024-01-25T11:46:16;11.45;;;6.53;;
56997;SDS011;42890;44.244;22.530;2024-01-25T11:48:42;11.93;;;6.15;;
56997;SDS011;42890;44.244;22.530;2024-01-25T11:51:09;13.70;;;6.05;;
56997;SDS011;42890;44.244;22.530;2024-01-25T11:53:36;12.63;;;7.05;;
56997;SDS011;42890;44.244;22.530;2024-01-25T11:56:03;22.55;;;5.78;;
56997;SDS011;42890;44.244;22.530;2024-01-25T11:58:30;14.73;;;7.28;;
56997;SDS011;42890;44.244;22.530;2024-01-25T12:00:56;10.80;;;5.60;;
56997;SDS011;42890;44.244;22.530;2024-01-25T12:03:22;16.52;;;7.32;;
56997;SDS011;42890;44.244;22.530;2024-01-25T12:05:48;16.85;;;8.10;;
56997;SDS011;42890;44.244;22.530;2024-01-25T12:08:16;18.35;;;6.93;;
56997;SDS011;42890;44.244;22.530;2024-01-25T12:10:43;14.38;;;6.10;;
56997;SDS011;42890;44.244;22.530;2024-01-25T12:13:09;13.07;;;8.40;;
56997;SDS011;42890;44.244;22.530;2024-01-25T12:15:35;13.60;;;7.45;;
56997;SDS011;42890;44.244;22.530;2024-01-25T12:18:01;13.35;;;5.90;;
56997;SDS011;42890;44.244;22.530;2024-01-25T12:20:28;12.70;;;6.60;;
56997;SDS011;42890;44.244;22.530;2024-01-25T12:22:54;13.68;;;6.93;;
56997;SDS011;42890;44.244;22.530;2024-01-25T12:25:20;12.45;;;5.47;;
56997;SDS011;42890;44.244;22.530;2024-01-25T12:27:47;12.55;;;7.10;;
56997;SDS011;42890;44.244;22.530;2024-01-25T12:30:15;13.45;;;6.38;;
56997;SDS011;42890;44.244;22.530;2024-01-25T12:32:41;11.57;;;5.28;;
56997;SDS011;42890;44.244;22.530;2024-01-25T12:35:08;11.60;;;5.63;;
56997;SDS011;42890;44.244;22.530;2024-01-25T12:37:34;14.90;;;5.90;;
56997;SDS011;42890;44.244;22.530;2024-01-25T12:40:00;13.05;;;6.28;;
56997;SDS011;42890;44.244;22.530;2024-01-25T12:42:27;10.45;;;5.40;;
56997;SDS011;42890;44.244;22.530;2024-01-25T12:44:53;12.63;;;5.43;;
56997;SDS011;42890;44.244;22.530;2024-01-25T12:47:20;13.23;;;5.40;;
56997;SDS011;42890;44.244;22.530;2024-01-25T12:49:46;12.75;;;5.35;;
56997;SDS011;42890;44.244;22.530;2024-01-25T12:52:13;12.07;;;5.88;;
56997;SDS011;42890;44.244;22.530;2024-01-25T12:54:39;14.95;;;5.97;;
56997;SDS011;42890;44.244;22.530;2024-01-25T12:57:06;14.38;;;5.78;;
56997;SDS011;42890;44.244;22.530;2024-01-25T12:59:32;13.68;;;6.25;;
56997;SDS011;42890;44.244;22.530;2024-01-25T13:01:59;13.10;;;5.30;;
56997;SDS011;42890;44.244;22.530;2024-01-25T13:04:25;14.50;;;6.20;;
56997;SDS011;42890;44.244;22.530;2024-01-25T13:06:55;15.02;;;6.25;;
56997;SDS011;42890;44.244;22.530;2024-01-25T13:09:21;13.73;;;5.65;;
56997;SDS011;42890;44.244;22.530;2024-01-25T13:11:47;12.95;;;5.50;;
56997;SDS011;42890;44.244;22.530;2024-01-25T13:14:14;18.02;;;6.28;;
56997;SDS011;42890;44.244;22.530;2024-01-25T13:16:40;11.57;;;5.95;;
56997;SDS011;42890;44.244;22.530;2024-01-25T13:19:06;14.27;;;5.95;;
56997;SDS011;42890;44.244;22.530;2024-01-25T13:21:32;17.58;;;11.68;;
56997;SDS011;42890;44.244;22.530;2024-01-25T13:24:01;13.90;;;6.05;;
56997;SDS011;42890;44.244;22.530;2024-01-25T13:26:28;12.50;;;6.00;;
56997;SDS011;42890;44.244;22.530;2024-01-25T13:28:54;15.43;;;6.10;;
56997;SDS011;42890;44.244;22.530;2024-01-25T13:31:20;13.43;;;6.30;;
56997;SDS011;42890;44.244;22.530;2024-01-25T13:33:46;11.02;;;7.43;;
56997;SDS011;42890;44.244;22.530;2024-01-25T13:36:13;13.25;;;6.95;;
56997;SDS011;42890;44.244;22.530;2024-01-25T13:38:40;12.93;;;7.03;;
56997;SDS011;42890;44.244;22.530;2024-01-25T13:41:06;10.90;;;6.30;;
56997;SDS011;42890;44.244;22.530;2024-01-25T13:43:32;9.52;;;5.78;;
56997;SDS011;42890;44.244;22.530;2024-01-25T13:45:58;13.05;;;5.72;;
56997;SDS011;42890;44.244;22.530;2024-01-25T13:48:24;11.57;;;4.72;;
56997;SDS011;42890;44.244;22.530;2024-01-25T13:50:51;13.10;;;5.68;;
56997;SDS011;42890;44.244;22.530;2024-01-25T13:53:17;11.52;;;5.40;;
56997;SDS011;42890;44.244;22.530;2024-01-25T13:55:43;13.25;;;6.78;;
56997;SDS011;42890;44.244;22.530;2024-01-25T13:58:09;16.83;;;9.50;;
56997;SDS011;42890;44.244;22.530;2024-01-25T14:00:36;16.45;;;9.20;;
56997;SDS011;42890;44.244;22.530;2024-01-25T14:03:02;23.95;;;16.63;;
56997;SDS011;42890;44.244;22.530;2024-01-25T14:05:28;13.73;;;6.57;;